createdAt,value
2019-02-16T00:02:07.196Z,0
2019-02-16T00:07:06.882Z,0
2019-02-16T00:12:06.834Z,0
2019-02-16T00:17:07.151Z,0
2019-02-16T00:22:06.898Z,0
2019-02-16T00:27:07.666Z,0
2019-02-16T00:31:06.893Z,0
2019-02-16T00:36:06.674Z,0
2019-02-16T00:41:06.669Z,0
2019-02-16T00:46:07.239Z,0
2019-02-16T00:51:14.211Z,0
2019-02-16T00:56:06.914Z,0
2019-02-16T01:01:07.209Z,0
2019-02-16T01:06:06.862Z,0
2019-02-16T01:10:06.864Z,0
2019-02-16T01:15:08.024Z,0
2019-02-16T01:20:06.864Z,0
2019-02-16T01:25:06.572Z,0
2019-02-16T01:30:08.447Z,0
2019-02-16T01:35:06.802Z,0
2019-02-16T01:40:06.827Z,0
2019-02-16T01:44:07.155Z,0
2019-02-16T01:49:07.900Z,0
2019-02-16T01:54:07.623Z,0
2019-02-16T01:59:07.285Z,0
2019-02-16T02:04:10.457Z,0
2019-02-16T02:09:08.274Z,0
2019-02-16T02:14:07.116Z,0
2019-02-16T02:19:06.761Z,0
2019-02-16T02:23:07.322Z,0
2019-02-16T02:28:07.059Z,0
2019-02-16T02:33:07.846Z,0
2019-02-16T02:38:07.498Z,0
2019-02-16T02:43:07.870Z,0
2019-02-16T02:48:07.893Z,0
2019-02-16T02:53:07.616Z,0
2019-02-16T02:57:07.107Z,0
2019-02-16T03:02:08.113Z,0
2019-02-16T03:07:07.983Z,0
2019-02-16T03:12:07.274Z,0
2019-02-16T03:17:07.300Z,0
2019-02-16T03:22:08.032Z,0
2019-02-16T03:27:07.958Z,0
2019-02-16T03:32:06.773Z,0
2019-02-16T03:36:07.443Z,0
2019-02-16T03:41:07.331Z,0
2019-02-16T03:46:07.367Z,0
2019-02-16T03:51:06.934Z,0
2019-02-16T03:56:07.095Z,0
2019-02-16T04:01:07.369Z,0
2019-02-16T04:06:07.354Z,0
2019-02-16T04:10:07.089Z,0
2019-02-16T04:15:08.226Z,0
2019-02-16T04:20:06.746Z,0
2019-02-16T04:25:07.915Z,0
2019-02-16T04:30:08.936Z,0
2019-02-16T04:35:07.168Z,0
2019-02-16T04:40:06.905Z,0
2019-02-16T04:44:06.328Z,0
2019-02-16T04:49:06.784Z,0
2019-02-16T04:54:06.636Z,0
2019-02-16T04:59:06.507Z,0
2019-02-16T05:04:07.573Z,0
2019-02-16T05:09:07.448Z,0
2019-02-16T05:14:07.695Z,0
2019-02-16T05:19:07.021Z,0
2019-02-16T05:23:06.131Z,0
2019-02-16T05:28:06.711Z,0
2019-02-16T05:33:07.183Z,0
2019-02-16T05:38:06.940Z,0
2019-02-16T05:43:06.396Z,0
2019-02-16T05:48:06.874Z,0.83
2019-02-16T05:53:06.675Z,4.17
2019-02-16T05:58:06.382Z,10.83
2019-02-16T06:02:06.792Z,26.67
2019-02-16T06:07:06.445Z,59.17
2019-02-16T06:12:06.675Z,122.5
2019-02-16T06:17:07.217Z,224.17
2019-02-16T06:22:06.948Z,369.17
2019-02-16T06:27:06.820Z,552.5
2019-02-16T06:32:06.374Z,775
2019-02-16T06:36:07.854Z,1004.17
2019-02-16T06:41:08.285Z,1235.83
2019-02-16T06:46:07.647Z,1458.33
2019-02-16T06:51:07.370Z,1702.5
2019-02-16T06:56:07.105Z,2006.67
2019-02-16T07:01:06.609Z,2250.83
2019-02-16T07:06:07.377Z,2450
2019-02-16T07:11:06.557Z,3015
2019-02-16T07:15:08.479Z,6763.33
2019-02-16T07:20:09.000Z,6979.17
2019-02-16T07:25:07.686Z,7786.67
2019-02-16T07:30:08.623Z,8657.5
2019-02-16T07:35:07.208Z,9399.17
2019-02-16T07:40:07.364Z,8563.33
2019-02-16T07:45:07.741Z,11403.33
2019-02-16T07:49:07.659Z,11588.33
2019-02-16T07:54:07.329Z,12519.17
2019-02-16T07:59:07.832Z,13525.83
2019-02-16T08:04:07.104Z,14115.83
2019-02-16T08:09:07.271Z,14918.33
2019-02-16T08:14:07.037Z,15175
2019-02-16T08:19:06.723Z,17210.83
2019-02-16T08:24:06.590Z,15755.83
2019-02-16T08:28:07.285Z,18641.67
2019-02-16T08:33:07.329Z,18072.5
2019-02-16T08:38:07.079Z,20076.67
2019-02-16T08:43:07.379Z,22578.33
2019-02-16T08:48:07.320Z,19915
2019-02-16T08:53:07.138Z,22567.5
2019-02-16T08:58:07.841Z,23830
2019-02-16T09:02:07.943Z,23555
2019-02-16T09:07:07.960Z,24633.33
2019-02-16T09:08:06.430Z,24633.33
2019-02-16T09:12:07.070Z,27073.33
2019-02-16T09:17:06.505Z,24280
2019-02-16T09:22:07.272Z,26661.67
2019-02-16T09:27:06.989Z,28800
2019-02-16T09:32:06.401Z,29711.67
2019-02-16T09:37:07.178Z,28440
2019-02-16T09:41:06.482Z,30996.67
2019-02-16T09:46:07.449Z,32102.5
2019-02-16T09:51:07.299Z,30390.83
2019-02-16T09:56:07.105Z,29927.5
2019-02-16T10:01:07.640Z,30158.33
2019-02-16T10:06:07.388Z,31813.33
2019-02-16T10:11:07.589Z,30272.5
2019-02-16T10:16:07.062Z,35894.16
2019-02-16T10:20:06.885Z,34213.33
2019-02-16T10:25:06.905Z,34103.33
2019-02-16T10:30:07.888Z,33479.16
2019-02-16T10:35:06.487Z,37480.83
2019-02-16T10:40:06.690Z,36521.66
2019-02-16T10:45:07.537Z,35092.5
2019-02-16T10:50:07.177Z,36902.5
2019-02-16T10:55:06.895Z,34487.5
2019-02-16T10:59:06.796Z,36782.5
2019-02-16T11:04:06.917Z,38188.33
2019-02-16T11:09:07.515Z,39186.66
2019-02-16T11:14:07.285Z,37221.66
2019-02-16T11:19:07.855Z,37226.66
2019-02-16T11:24:07.504Z,38664.16
2019-02-16T11:29:06.658Z,37414.16
2019-02-16T11:34:07.180Z,37142.5
2019-02-16T11:38:07.019Z,38232.5
2019-02-16T11:43:07.115Z,36978.33
2019-02-16T11:48:06.904Z,37522.5
2019-02-16T11:53:06.640Z,37793.33
2019-02-16T11:58:06.384Z,36285.83
2019-02-16T12:03:07.044Z,37876.66
2019-02-16T12:08:07.819Z,36227.5
2019-02-16T12:13:07.128Z,36821.66
2019-02-16T12:17:07.216Z,35900.83
2019-02-16T12:22:06.950Z,34357.5
2019-02-16T12:27:06.710Z,34421.66
2019-02-16T12:32:07.257Z,35787.5
2019-02-16T12:37:06.957Z,33741.66
2019-02-16T12:42:07.140Z,33998.33
2019-02-16T12:47:06.460Z,32393.33
2019-02-16T12:52:07.187Z,32795.83
2019-02-16T12:56:07.022Z,33806.66
2019-02-16T13:01:06.981Z,28889.17
2019-02-16T13:06:06.761Z,32213.33
2019-02-16T13:11:07.196Z,30014.17
2019-02-16T13:16:06.928Z,29696.67
2019-02-16T13:21:06.760Z,30171.67
2019-02-16T13:26:06.525Z,29614.17
2019-02-16T13:30:07.144Z,26118.33
2019-02-16T13:35:06.461Z,26292.5
2019-02-16T13:40:06.901Z,28555.83
2019-02-16T13:45:07.876Z,20850
2019-02-16T13:50:07.952Z,25653.33
2019-02-16T13:55:07.744Z,24964.17
2019-02-16T14:05:07.276Z,21117.5
2019-02-16T14:09:07.399Z,22161.67
2019-02-16T14:14:07.129Z,22736.67
2019-02-16T14:19:06.811Z,21153.33
2019-02-16T14:24:06.662Z,20610.83
2019-02-16T14:29:06.452Z,17445
2019-02-16T14:34:07.168Z,18605.83
2019-02-16T14:39:07.977Z,18391.67
2019-02-16T14:43:07.119Z,17200.83
2019-02-16T14:48:07.093Z,14047.5
2019-02-16T14:53:06.810Z,9142.5
2019-02-16T14:58:06.549Z,9973.33
2019-02-16T15:03:07.568Z,7645
2019-02-16T15:08:07.234Z,8248.33
2019-02-16T15:13:07.614Z,9290
2019-02-16T15:18:07.121Z,9179.17
2019-02-16T15:22:07.250Z,7704.17
2019-02-16T15:27:06.896Z,6350
2019-02-16T15:32:06.375Z,5958.33
2019-02-16T15:37:07.129Z,5100.83
2019-02-16T15:42:06.469Z,4894.17
2019-02-16T15:47:06.552Z,2985
2019-02-16T15:51:06.438Z,2754.17
2019-02-16T15:56:11.163Z,2335.83
2019-02-16T16:01:06.978Z,2000.83
2019-02-16T16:06:06.842Z,1700
2019-02-16T16:11:06.942Z,1219.17
2019-02-16T16:16:07.334Z,948.33
2019-02-16T16:21:07.199Z,633.33
2019-02-16T16:25:07.552Z,423.33
2019-02-16T16:30:07.940Z,251.67
2019-02-16T16:35:07.680Z,131.67
2019-02-16T16:40:06.991Z,60.83
2019-02-16T16:45:08.387Z,25.83
2019-02-16T16:50:07.879Z,10
2019-02-16T16:54:07.246Z,4.17
2019-02-16T16:59:07.306Z,1.67
2019-02-16T17:04:07.114Z,0
2019-02-16T17:09:08.134Z,0
2019-02-16T17:14:06.871Z,0
2019-02-16T17:19:06.363Z,0
2019-02-16T17:24:07.236Z,0
2019-02-16T17:28:07.742Z,0
2019-02-16T17:33:07.695Z,0
2019-02-16T17:38:07.388Z,0
2019-02-16T17:43:07.694Z,0
2019-02-16T17:48:07.138Z,0
2019-02-16T17:53:07.991Z,0
2019-02-16T17:58:07.138Z,0
2019-02-16T18:02:06.690Z,0
2019-02-16T18:07:06.541Z,0
2019-02-16T18:12:06.728Z,0
2019-02-16T18:17:06.555Z,0
2019-02-16T18:22:07.699Z,0
2019-02-16T18:27:06.422Z,0
2019-02-16T18:32:06.706Z,0
2019-02-16T18:36:07.291Z,0
2019-02-16T18:41:07.633Z,0
2019-02-16T18:46:07.409Z,0
2019-02-16T18:51:07.331Z,0
2019-02-16T18:56:07.405Z,0
2019-02-16T19:01:06.944Z,0
2019-02-16T19:06:06.776Z,0
2019-02-16T19:10:07.667Z,0
2019-02-16T19:15:09.372Z,0
2019-02-16T19:20:07.989Z,0
2019-02-16T19:25:07.852Z,0
2019-02-16T19:30:09.037Z,0
2019-02-16T19:35:07.152Z,0
2019-02-16T19:40:07.437Z,0
2019-02-16T19:44:06.637Z,0
2019-02-16T19:49:07.144Z,0
2019-02-16T19:54:06.858Z,0
2019-02-16T19:59:06.572Z,0
2019-02-16T20:04:07.431Z,0
2019-02-16T20:09:07.641Z,0
2019-02-16T20:14:07.487Z,0
2019-02-16T20:18:07.332Z,0
2019-02-16T20:23:07.727Z,0
2019-02-16T20:28:07.422Z,0
2019-02-16T20:33:07.213Z,0
2019-02-16T20:38:07.076Z,0
2019-02-16T20:43:07.586Z,0
2019-02-16T20:48:07.703Z,0
2019-02-16T20:52:07.159Z,0
2019-02-16T20:57:07.295Z,0
2019-02-16T21:02:07.818Z,0
2019-02-16T21:07:07.600Z,0
2019-02-16T21:12:07.812Z,0
2019-02-16T21:17:07.433Z,0
2019-02-16T21:22:09.976Z,0
2019-02-16T21:26:07.407Z,0
2019-02-16T21:31:07.186Z,0
2019-02-16T21:36:06.972Z,0
2019-02-16T21:41:07.182Z,0
2019-02-16T21:46:06.889Z,0
2019-02-16T21:51:06.759Z,0
2019-02-16T21:56:06.590Z,0
2019-02-16T22:01:07.388Z,0
2019-02-16T22:05:06.529Z,0
2019-02-16T22:10:06.674Z,0
2019-02-16T22:15:07.779Z,0
2019-02-16T22:20:06.916Z,0
2019-02-16T22:25:07.242Z,0
2019-02-16T22:30:08.321Z,0
2019-02-16T22:35:07.193Z,0
2019-02-16T22:39:07.474Z,0
2019-02-16T22:44:07.153Z,0
2019-02-16T22:49:06.594Z,0
2019-02-16T22:54:07.471Z,0
2019-02-16T22:59:07.446Z,0
2019-02-16T23:04:06.836Z,0
2019-02-16T23:09:06.965Z,0
2019-02-16T23:13:06.964Z,0
2019-02-16T23:18:06.548Z,0
2019-02-16T23:23:07.308Z,0
2019-02-16T23:28:07.004Z,0
2019-02-16T23:33:07.384Z,0
2019-02-16T23:38:07.090Z,0
2019-02-16T23:43:07.336Z,0
2019-02-16T23:47:06.811Z,0
2019-02-16T23:52:06.676Z,0
2019-02-16T23:57:06.386Z,0
